createdAt,value
2022-11-29T00:01:04.670Z,7.71
2022-11-29T00:03:33.185Z,7.71
2022-11-29T00:06:08.431Z,7.68
2022-11-29T00:08:36.164Z,7.68
2022-11-29T00:11:07.585Z,7.67
2022-11-29T00:13:34.441Z,7.70
2022-11-29T00:16:09.460Z,7.71
2022-11-29T00:18:36.634Z,7.71
2022-11-29T00:21:07.526Z,7.70
2022-11-29T00:23:34.922Z,7.69
2022-11-29T00:26:06.335Z,7.69
2022-11-29T00:28:34.305Z,7.69
2022-11-29T00:31:01.058Z,7.71
2022-11-29T00:33:27.651Z,7.71
2022-11-29T00:35:54.253Z,7.71
2022-11-29T00:38:20.815Z,7.70
2022-11-29T00:40:51.733Z,7.70
2022-11-29T00:43:18.406Z,7.70
2022-11-29T00:45:44.910Z,7.70
2022-11-29T00:48:11.454Z,7.72
2022-11-29T00:50:37.972Z,7.72
2022-11-29T00:53:04.519Z,7.73
2022-11-29T00:55:30.996Z,7.72
2022-11-29T00:57:58.119Z,7.73
2022-11-29T01:00:24.646Z,7.72
2022-11-29T01:02:51.178Z,7.72
2022-11-29T01:05:17.727Z,7.72
2022-11-29T01:07:44.293Z,7.72
2022-11-29T01:10:11.043Z,7.75
2022-11-29T01:12:38.517Z,7.74
2022-11-29T01:15:06.944Z,7.74
2022-11-29T01:17:37.787Z,7.74
2022-11-29T01:20:09.128Z,7.72
2022-11-29T01:22:35.997Z,7.69
2022-11-29T01:25:03.389Z,7.69
2022-11-29T01:27:30.220Z,7.71
2022-11-29T01:29:56.698Z,7.72
2022-11-29T01:32:23.233Z,7.72
2022-11-29T01:34:50.524Z,7.68
2022-11-29T01:37:17.027Z,7.69
2022-11-29T01:39:43.590Z,7.70
2022-11-29T01:42:13.959Z,7.69
2022-11-29T01:44:46.895Z,7.69
2022-11-29T01:47:13.656Z,7.70
2022-11-29T01:49:46.774Z,7.68
2022-11-29T01:52:19.513Z,7.69
2022-11-29T01:54:50.786Z,7.68
2022-11-29T01:57:18.694Z,7.67
2022-11-29T01:59:50.149Z,7.69
2022-11-29T02:02:40.011Z,7.69
2022-11-29T02:05:07.253Z,7.67
2022-11-29T02:07:34.071Z,7.67
2022-11-29T02:10:01.933Z,7.67
2022-11-29T02:12:50.666Z,7.69
2022-11-29T02:15:46.156Z,7.67
2022-11-29T02:18:22.305Z,7.64
2022-11-29T02:20:57.462Z,7.64
2022-11-29T02:23:51.230Z,7.61
2022-11-29T02:26:49.967Z,7.61
2022-11-29T02:29:31.699Z,7.60
2022-11-29T02:32:16.951Z,7.57
2022-11-29T02:35:05.237Z,7.58
2022-11-29T02:37:53.467Z,7.57
2022-11-29T02:40:33.167Z,7.57
2022-11-29T02:43:27.894Z,7.59
2022-11-29T02:46:16.416Z,7.57
2022-11-29T02:49:41.781Z,7.55
2022-11-29T02:52:15.808Z,7.53
2022-11-29T02:54:54.745Z,7.52
2022-11-29T02:57:38.292Z,7.50
2022-11-29T03:00:11.283Z,7.53
2022-11-29T03:02:49.528Z,7.54
2022-11-29T03:05:22.056Z,7.53
2022-11-29T03:07:54.023Z,7.53
2022-11-29T03:10:38.715Z,7.51
2022-11-29T03:13:15.803Z,7.48
2022-11-29T03:16:03.205Z,7.47
2022-11-29T03:18:38.710Z,7.46
2022-11-29T03:21:39.473Z,7.46
2022-11-29T03:24:13.658Z,7.46
2022-11-29T03:26:45.194Z,7.44
2022-11-29T03:29:37.937Z,7.44
2022-11-29T03:32:10.445Z,7.41
2022-11-29T03:35:02.149Z,7.39
2022-11-29T03:37:56.740Z,7.35
2022-11-29T03:40:51.230Z,7.36
2022-11-29T03:43:33.496Z,7.35
2022-11-29T03:46:07.055Z,7.34
2022-11-29T03:48:37.707Z,7.36
2022-11-29T03:51:13.938Z,7.39
2022-11-29T03:53:47.202Z,7.38
2022-11-29T03:56:35.835Z,7.34
2022-11-29T03:59:30.002Z,7.33
2022-11-29T04:02:34.303Z,7.34
2022-11-29T04:05:37.623Z,7.34
2022-11-29T04:08:12.995Z,7.34
2022-11-29T04:11:22.892Z,7.32
2022-11-29T04:14:12.423Z,7.33
2022-11-29T04:16:54.664Z,7.32
2022-11-29T04:20:00.146Z,7.31
2022-11-29T04:23:01.753Z,7.28
2022-11-29T04:25:37.087Z,7.28
2022-11-29T04:28:33.362Z,7.27
2022-11-29T04:31:08.996Z,7.25
2022-11-29T04:33:41.282Z,7.23
2022-11-29T04:36:33.971Z,7.22
2022-11-29T04:39:29.655Z,7.21
2022-11-29T04:42:26.521Z,7.22
2022-11-29T04:45:08.356Z,7.22
2022-11-29T04:47:49.139Z,7.20
2022-11-29T04:50:35.738Z,7.19
2022-11-29T04:53:11.799Z,7.19
2022-11-29T04:55:59.840Z,7.18
2022-11-29T04:59:01.677Z,7.20
2022-11-29T05:01:46.523Z,7.17
2022-11-29T05:04:26.074Z,7.16
2022-11-29T05:07:09.809Z,7.17
2022-11-29T05:09:59.756Z,7.18
2022-11-29T05:12:49.134Z,7.18
2022-11-29T05:15:45.084Z,7.15
2022-11-29T05:18:14.682Z,7.19
2022-11-29T05:20:53.525Z,7.17
2022-11-29T05:23:57.753Z,7.17
2022-11-29T05:26:33.766Z,7.19
2022-11-29T05:29:05.804Z,7.18
2022-11-29T05:31:54.215Z,7.17
2022-11-29T05:34:37.882Z,7.18
2022-11-29T05:37:21.982Z,7.18
2022-11-29T05:40:23.786Z,7.19
2022-11-29T05:43:19.402Z,7.21
2022-11-29T05:46:04.922Z,7.19
2022-11-29T05:48:52.862Z,7.19
2022-11-29T05:51:50.305Z,7.21
2022-11-29T05:54:46.952Z,7.23
2022-11-29T05:57:45.708Z,7.20
2022-11-29T06:00:18.841Z,7.19
2022-11-29T06:03:06.567Z,7.17
2022-11-29T06:05:49.876Z,7.16
2022-11-29T06:08:25.306Z,7.17
2022-11-29T06:11:32.909Z,7.16
2022-11-29T06:14:36.804Z,7.16
2022-11-29T06:17:25.853Z,7.14
2022-11-29T06:20:36.114Z,7.15
2022-11-29T06:23:05.898Z,7.14
2022-11-29T06:25:43.259Z,7.16
2022-11-29T06:28:27.298Z,7.17
2022-11-29T06:31:15.102Z,7.19
2022-11-29T06:33:56.257Z,7.17
2022-11-29T06:36:35.951Z,7.13
2022-11-29T06:39:02.806Z,7.09
2022-11-29T06:41:29.852Z,7.11
2022-11-29T06:43:56.754Z,7.09
2022-11-29T06:46:41.413Z,7.12
2022-11-29T06:49:28.481Z,7.14
2022-11-29T06:52:20.322Z,7.13
2022-11-29T06:55:09.399Z,7.13
2022-11-29T06:57:54.091Z,7.15
2022-11-29T07:00:23.603Z,7.17
2022-11-29T07:03:17.902Z,7.13
2022-11-29T07:05:46.475Z,7.13
2022-11-29T07:08:18.972Z,7.14
2022-11-29T07:10:49.966Z,7.13
2022-11-29T07:13:18.454Z,7.12
2022-11-29T07:16:07.609Z,7.14
2022-11-29T07:18:46.683Z,7.13
2022-11-29T07:22:04.682Z,7.11
2022-11-29T07:24:44.680Z,7.14
2022-11-29T07:27:17.504Z,7.16
2022-11-29T07:30:20.034Z,7.16
2022-11-29T07:33:23.165Z,7.13
2022-11-29T07:35:58.523Z,7.13
2022-11-29T07:38:48.997Z,7.14
2022-11-29T07:41:35.915Z,7.13
2022-11-29T07:44:17.061Z,7.12
2022-11-29T07:46:43.598Z,7.11
2022-11-29T07:49:11.388Z,7.07
2022-11-29T07:51:38.363Z,7.05
2022-11-29T07:54:05.871Z,7.06
2022-11-29T07:56:32.704Z,7.06
2022-11-29T07:59:00.169Z,7.07
2022-11-29T08:01:29.671Z,7.06
2022-11-29T08:03:56.242Z,7.02
2022-11-29T08:06:26.276Z,6.99
2022-11-29T08:08:52.933Z,6.99
2022-11-29T08:11:21.933Z,6.97
2022-11-29T08:13:48.548Z,6.94
2022-11-29T08:16:18.547Z,6.93
2022-11-29T08:18:45.195Z,6.94
2022-11-29T08:21:11.791Z,6.92
2022-11-29T08:23:38.485Z,6.95
2022-11-29T08:26:07.195Z,6.98
2022-11-29T08:28:33.861Z,7.01
2022-11-29T08:31:06.781Z,7.03
2022-11-29T08:33:39.159Z,7.11
2022-11-29T08:36:07.554Z,7.09
2022-11-29T08:38:34.153Z,7.13
2022-11-29T08:41:04.885Z,7.13
2022-11-29T08:43:45.293Z,7.15
2022-11-29T08:46:17.998Z,7.15
2022-11-29T08:48:46.847Z,7.18
2022-11-29T08:52:23.036Z,7.21
2022-11-29T08:54:49.532Z,7.27
2022-11-29T08:57:39.316Z,7.27
2022-11-29T09:00:06.212Z,7.30
2022-11-29T09:02:33.039Z,7.32
2022-11-29T09:05:04.739Z,7.34
2022-11-29T09:07:31.459Z,7.36
2022-11-29T09:09:57.971Z,7.35
2022-11-29T09:12:24.862Z,7.32
2022-11-29T09:14:51.387Z,7.35
2022-11-29T09:17:17.987Z,7.41
2022-11-29T09:19:45.418Z,7.45
2022-11-29T09:22:12.175Z,7.47
2022-11-29T09:24:38.723Z,7.44
2022-11-29T09:27:06.251Z,7.46
2022-11-29T09:29:33.035Z,7.49
2022-11-29T09:32:00.520Z,7.53
2022-11-29T09:34:27.138Z,7.59
2022-11-29T09:36:53.901Z,7.60
2022-11-29T09:39:23.618Z,7.60
2022-11-29T09:42:33.790Z,7.60
2022-11-29T09:45:10.725Z,7.57
2022-11-29T09:48:12.666Z,7.61
2022-11-29T09:51:09.617Z,7.67
2022-11-29T09:54:00.489Z,7.71
2022-11-29T09:56:46.526Z,7.72
2022-11-29T09:59:28.979Z,7.76
2022-11-29T10:02:21.124Z,7.77
2022-11-29T10:04:54.342Z,7.77
2022-11-29T10:07:25.076Z,7.74
2022-11-29T10:10:02.307Z,7.81
2022-11-29T10:12:38.866Z,7.79
2022-11-29T10:15:27.348Z,7.80
2022-11-29T10:18:18.448Z,7.79
2022-11-29T10:20:50.671Z,7.84
2022-11-29T10:23:45.490Z,7.88
2022-11-29T10:26:14.847Z,7.98
2022-11-29T10:28:49.475Z,8.06
2022-11-29T10:31:42.694Z,8.11
2022-11-29T10:34:14.783Z,8.16
2022-11-29T10:36:50.926Z,8.13
2022-11-29T10:39:37.145Z,8.11
2022-11-29T10:42:06.865Z,8.10
2022-11-29T10:44:33.953Z,8.17
2022-11-29T10:47:09.232Z,8.25
2022-11-29T10:49:37.826Z,8.15
2022-11-29T10:52:05.550Z,8.04
2022-11-29T10:54:39.958Z,7.99
2022-11-29T10:57:15.547Z,8.03
2022-11-29T10:59:58.092Z,8.03
2022-11-29T11:02:24.597Z,8.09
2022-11-29T11:04:51.861Z,8.17
2022-11-29T11:07:32.069Z,8.21
2022-11-29T11:09:59.695Z,8.21
2022-11-29T11:12:31.993Z,8.18
2022-11-29T11:15:37.957Z,8.21
2022-11-29T11:18:06.635Z,8.39
2022-11-29T11:20:36.559Z,8.49
2022-11-29T11:23:20.777Z,8.54
2022-11-29T11:25:50.114Z,8.63
2022-11-29T11:28:25.184Z,8.67
2022-11-29T11:30:55.936Z,8.67
2022-11-29T11:33:29.593Z,8.65
2022-11-29T11:36:04.490Z,8.75
2022-11-29T11:38:32.056Z,8.84
2022-11-29T11:41:18.648Z,8.82
2022-11-29T11:44:00.549Z,8.72
2022-11-29T11:46:47.441Z,8.76
2022-11-29T11:49:24.286Z,8.84
2022-11-29T11:51:51.039Z,8.78
2022-11-29T11:54:17.781Z,8.71
2022-11-29T11:56:44.520Z,8.68
2022-11-29T11:59:24.444Z,8.65
2022-11-29T12:01:51.411Z,8.59
2022-11-29T12:04:33.939Z,8.62
2022-11-29T12:07:14.336Z,8.71
2022-11-29T12:09:46.334Z,8.73
2022-11-29T12:12:23.509Z,8.76
2022-11-29T12:15:02.281Z,8.72
2022-11-29T12:17:39.774Z,8.66
2022-11-29T12:20:39.161Z,8.70
2022-11-29T12:23:11.860Z,8.79
2022-11-29T12:26:54.925Z,8.80
2022-11-29T12:29:16.127Z,8.89
2022-11-29T12:32:04.335Z,8.94
2022-11-29T12:35:07.077Z,8.96
2022-11-29T12:37:47.133Z,8.98
2022-11-29T12:40:22.319Z,9.00
2022-11-29T12:42:54.543Z,9.08
2022-11-29T12:45:26.160Z,9.16
2022-11-29T12:48:05.243Z,9.13
2022-11-29T12:50:51.859Z,9.09
2022-11-29T12:53:27.553Z,9.12
2022-11-29T12:56:05.037Z,9.13
2022-11-29T12:58:41.328Z,9.15
2022-11-29T13:01:37.125Z,9.12
2022-11-29T13:04:38.398Z,9.12
2022-11-29T13:08:00.461Z,9.11
2022-11-29T13:10:58.244Z,9.11
2022-11-29T13:13:48.637Z,9.15
2022-11-29T13:16:41.779Z,9.12
2022-11-29T13:26:25.743Z,9.10
2022-11-29T13:33:58.818Z,9.05
2022-11-29T13:36:38.175Z,9.09
2022-11-29T13:40:18.001Z,9.15
2022-11-29T13:59:47.387Z,8.96
2022-11-29T14:14:26.166Z,8.88
2022-11-29T14:16:58.487Z,8.87
2022-11-29T14:19:34.326Z,8.80
2022-11-29T14:22:06.883Z,8.76
2022-11-29T14:24:35.184Z,8.67
2022-11-29T14:27:12.333Z,8.64
2022-11-29T14:29:47.996Z,8.58
2022-11-29T14:32:55.634Z,8.52
2022-11-29T14:35:32.285Z,8.45
2022-11-29T14:38:06.856Z,8.36
2022-11-29T14:40:42.114Z,8.27
2022-11-29T14:43:36.916Z,8.20
2022-11-29T14:46:15.669Z,8.15
2022-11-29T14:48:47.114Z,8.12
2022-11-29T14:51:17.794Z,8.11
2022-11-29T14:53:47.270Z,8.07
2022-11-29T14:56:29.650Z,8.06
2022-11-29T14:59:44.492Z,8.00
2022-11-29T15:02:20.065Z,7.94
2022-11-29T15:04:51.090Z,7.87
2022-11-29T15:07:23.288Z,7.80
2022-11-29T15:09:53.097Z,7.74
2022-11-29T15:12:26.711Z,7.69
2022-11-29T15:15:18.739Z,7.63
2022-11-29T15:17:56.063Z,7.55
2022-11-29T15:20:34.603Z,7.50
2022-11-29T15:23:08.831Z,7.46
2022-11-29T15:25:39.034Z,7.42
2022-11-29T15:28:06.855Z,7.39
2022-11-29T15:30:37.083Z,7.33
2022-11-29T15:33:18.959Z,7.27
2022-11-29T15:35:52.314Z,7.24
2022-11-29T15:38:20.299Z,7.28
2022-11-29T15:40:53.160Z,7.36
2022-11-29T15:43:40.147Z,7.33
2022-11-29T15:46:28.309Z,7.30
2022-11-29T15:49:16.422Z,7.29
2022-11-29T15:51:46.325Z,7.31
2022-11-29T15:54:28.956Z,7.30
2022-11-29T15:57:03.250Z,7.30
2022-11-29T15:59:38.650Z,7.33
2022-11-29T16:02:24.934Z,7.36
2022-11-29T16:04:57.561Z,7.36
2022-11-29T16:07:25.916Z,7.36
2022-11-29T16:09:59.986Z,7.36
2022-11-29T16:12:27.552Z,7.37
2022-11-29T16:14:59.954Z,7.39
2022-11-29T16:17:29.703Z,7.40
2022-11-29T16:20:17.324Z,7.39
2022-11-29T16:22:44.150Z,7.39
2022-11-29T16:25:18.980Z,7.39
2022-11-29T16:27:46.253Z,7.40
2022-11-29T16:30:25.650Z,7.41
2022-11-29T16:33:00.457Z,7.41
2022-11-29T16:35:36.124Z,7.42
2022-11-29T16:38:06.247Z,7.42
2022-11-29T16:40:41.839Z,7.42
2022-11-29T16:43:45.391Z,7.41
2022-11-29T16:46:21.333Z,7.42
2022-11-29T16:48:52.627Z,7.41
2022-11-29T16:51:23.882Z,7.39
2022-11-29T16:53:53.101Z,7.40
2022-11-29T16:56:24.858Z,7.39
2022-11-29T16:59:17.169Z,7.38
2022-11-29T17:01:46.764Z,7.36
2022-11-29T17:04:23.828Z,7.37
2022-11-29T17:06:53.494Z,7.37
2022-11-29T17:09:26.059Z,7.36
2022-11-29T17:11:53.592Z,7.33
2022-11-29T17:14:20.234Z,7.31
2022-11-29T17:16:49.735Z,7.30
2022-11-29T17:19:16.697Z,7.33
2022-11-29T17:21:43.293Z,7.33
2022-11-29T17:24:12.535Z,7.32
2022-11-29T17:26:40.191Z,7.31
2022-11-29T17:29:07.319Z,7.32
2022-11-29T17:31:34.000Z,7.30
2022-11-29T17:34:01.065Z,7.31
2022-11-29T17:36:28.009Z,7.30
2022-11-29T17:38:55.832Z,7.30
2022-11-29T17:41:24.587Z,7.31
2022-11-29T17:43:53.377Z,7.33
2022-11-29T17:46:24.229Z,7.35
2022-11-29T17:48:54.387Z,7.36
2022-11-29T17:51:50.633Z,7.34
2022-11-29T17:54:11.957Z,7.35
2022-11-29T17:56:38.460Z,7.38
2022-11-29T17:59:05.885Z,7.36
2022-11-29T18:01:34.843Z,7.35
2022-11-29T18:04:02.878Z,7.38
2022-11-29T18:06:35.663Z,7.40
2022-11-29T18:09:04.415Z,7.38
2022-11-29T18:11:42.913Z,7.38
2022-11-29T18:14:15.761Z,7.36
2022-11-29T18:16:45.141Z,7.37
2022-11-29T18:19:16.339Z,7.38
2022-11-29T18:21:43.518Z,7.38
2022-11-29T18:24:14.569Z,7.39
2022-11-29T18:26:41.833Z,7.41
2022-11-29T18:29:09.283Z,7.40
2022-11-29T18:31:38.229Z,7.40
2022-11-29T18:34:09.547Z,7.38
2022-11-29T18:36:49.094Z,7.38
2022-11-29T18:39:17.804Z,7.38
2022-11-29T18:41:47.071Z,7.37
2022-11-29T18:44:15.491Z,7.37
2022-11-29T18:46:43.776Z,7.36
2022-11-29T18:49:13.580Z,7.37
2022-11-29T18:51:42.937Z,7.39
2022-11-29T18:54:09.843Z,7.39
2022-11-29T18:56:37.544Z,7.37
2022-11-29T18:59:07.917Z,7.38
2022-11-29T19:01:37.896Z,7.36
2022-11-29T19:04:04.717Z,7.36
2022-11-29T19:06:39.394Z,7.38
2022-11-29T19:09:09.646Z,7.40
2022-11-29T19:11:38.826Z,7.39
2022-11-29T19:14:11.464Z,7.37
2022-11-29T19:16:40.133Z,7.35
2022-11-29T19:19:06.896Z,7.38
2022-11-29T19:21:34.626Z,7.38
2022-11-29T19:24:07.716Z,7.39
2022-11-29T19:26:34.561Z,7.40
2022-11-29T19:29:01.751Z,7.41
2022-11-29T19:31:28.935Z,7.40
2022-11-29T19:33:57.151Z,7.40
2022-11-29T19:36:28.861Z,7.40
2022-11-29T19:38:56.074Z,7.40
2022-11-29T19:41:31.183Z,7.41
2022-11-29T19:43:59.923Z,7.40
2022-11-29T19:46:30.491Z,7.40
2022-11-29T19:48:58.866Z,7.40
2022-11-29T19:51:28.048Z,7.40
2022-11-29T19:53:56.920Z,7.39
2022-11-29T19:56:23.473Z,7.40
2022-11-29T19:58:50.755Z,7.39
2022-11-29T20:01:23.009Z,7.40
2022-11-29T20:04:03.145Z,7.41
2022-11-29T20:06:31.359Z,7.39
2022-11-29T20:09:04.318Z,7.40
2022-11-29T20:11:34.139Z,7.40
2022-11-29T20:14:15.462Z,7.38
2022-11-29T20:16:51.672Z,7.37
2022-11-29T20:19:18.566Z,7.37
2022-11-29T20:21:48.235Z,7.38
2022-11-29T20:24:17.497Z,7.38
2022-11-29T20:26:47.342Z,7.39
2022-11-29T20:29:17.510Z,7.40
2022-11-29T20:31:50.769Z,7.43
2022-11-29T20:34:19.114Z,7.40
2022-11-29T20:37:22.885Z,7.40
2022-11-29T20:39:59.814Z,7.42
2022-11-29T20:42:31.459Z,7.40
2022-11-29T20:45:04.994Z,7.42
2022-11-29T20:47:47.091Z,7.42
2022-11-29T20:50:23.259Z,7.42
2022-11-29T20:52:59.717Z,7.43
2022-11-29T20:55:27.009Z,7.43
2022-11-29T20:57:53.719Z,7.43
2022-11-29T21:00:22.686Z,7.43
2022-11-29T21:02:50.062Z,7.43
2022-11-29T21:05:16.835Z,7.44
2022-11-29T21:07:44.055Z,7.45
2022-11-29T21:10:11.771Z,7.44
2022-11-29T21:12:39.295Z,7.47
2022-11-29T21:15:07.677Z,7.45
2022-11-29T21:17:34.560Z,7.47
2022-11-29T21:20:03.910Z,7.47
2022-11-29T21:22:38.423Z,7.47
2022-11-29T21:25:38.400Z,7.47
2022-11-29T21:28:10.677Z,7.49
2022-11-29T21:30:43.015Z,7.47
2022-11-29T21:33:12.508Z,7.49
2022-11-29T21:35:40.113Z,7.49
2022-11-29T21:38:20.168Z,7.48
2022-11-29T21:40:54.413Z,7.48
2022-11-29T21:44:04.432Z,7.48
2022-11-29T21:46:17.555Z,7.50
2022-11-29T21:48:44.558Z,7.51
2022-11-29T21:51:11.943Z,7.52
2022-11-29T21:53:40.083Z,7.53
2022-11-29T21:56:09.145Z,7.51
2022-11-29T21:58:37.821Z,7.53
2022-11-29T22:01:13.905Z,7.51
2022-11-29T22:03:42.100Z,7.53
2022-11-29T22:06:11.810Z,7.53
2022-11-29T22:08:40.484Z,7.52
2022-11-29T22:11:12.835Z,7.53
2022-11-29T22:14:00.867Z,7.52
2022-11-29T22:16:28.985Z,7.54
2022-11-29T22:18:55.539Z,7.54
2022-11-29T22:21:22.424Z,7.54
2022-11-29T22:23:48.926Z,7.54
2022-11-29T22:26:15.581Z,7.54
2022-11-29T22:28:42.112Z,7.55
2022-11-29T22:31:12.072Z,7.56
2022-11-29T22:33:39.258Z,7.56
2022-11-29T22:36:11.283Z,7.56
2022-11-29T22:38:39.016Z,7.59
2022-11-29T22:41:11.560Z,7.57
2022-11-29T22:43:39.527Z,7.56
2022-11-29T22:46:16.740Z,7.55
2022-11-29T22:48:45.350Z,7.53
2022-11-29T22:51:18.114Z,7.52
2022-11-29T22:53:51.619Z,7.52
2022-11-29T22:56:18.797Z,7.51
2022-11-29T22:58:46.508Z,7.50
2022-11-29T23:01:18.812Z,7.49
2022-11-29T23:03:48.393Z,7.48
2022-11-29T23:06:18.582Z,7.46
2022-11-29T23:08:49.892Z,7.46
2022-11-29T23:11:22.981Z,7.46
2022-11-29T23:13:52.241Z,7.45
2022-11-29T23:16:25.289Z,7.45
2022-11-29T23:18:56.107Z,7.45
2022-11-29T23:21:25.541Z,7.43
2022-11-29T23:23:56.275Z,7.43
2022-11-29T23:26:45.007Z,7.43
2022-11-29T23:29:19.637Z,7.44
2022-11-29T23:31:47.523Z,7.43
2022-11-29T23:34:15.750Z,7.45
2022-11-29T23:36:49.682Z,7.45
2022-11-29T23:39:20.846Z,7.44
2022-11-29T23:41:47.338Z,7.42
2022-11-29T23:44:13.843Z,7.39
2022-11-29T23:46:40.403Z,7.38
2022-11-29T23:49:06.954Z,7.36
2022-11-29T23:51:42.190Z,7.35
2022-11-29T23:54:08.887Z,7.35
2022-11-29T23:56:36.184Z,7.34
2022-11-29T23:59:03.097Z,7.34
